createdAt,value
2017-08-24T00:00:10.658Z,0
2017-08-24T00:01:23.234Z,0
2017-08-24T00:02:35.885Z,0
2017-08-24T00:03:47.888Z,0
2017-08-24T00:04:59.886Z,0
2017-08-24T00:06:12.106Z,0
2017-08-24T00:07:24.363Z,0
2017-08-24T00:08:36.997Z,0
2017-08-24T00:09:49.802Z,0
2017-08-24T00:11:02.024Z,0
2017-08-24T00:12:14.269Z,0
2017-08-24T00:13:26.847Z,0
2017-08-24T00:14:39.449Z,0
2017-08-24T00:15:51.681Z,0
2017-08-24T00:17:04.016Z,0
2017-08-24T00:18:16.586Z,0
2017-08-24T00:19:29.149Z,0
2017-08-24T00:20:41.452Z,0
2017-08-24T00:21:53.434Z,0
2017-08-24T00:23:06.068Z,0
2017-08-24T00:24:18.691Z,0
2017-08-24T00:25:30.934Z,0
2017-08-24T00:26:43.581Z,0
2017-08-24T00:27:56.108Z,0
2017-08-24T00:29:08.372Z,0
2017-08-24T00:30:20.952Z,0
2017-08-24T00:31:32.964Z,0
2017-08-24T00:32:45.509Z,0
2017-08-24T00:33:57.761Z,0
2017-08-24T00:35:09.425Z,0
2017-08-24T00:36:21.657Z,0
2017-08-24T00:37:34.334Z,0
2017-08-24T00:38:46.941Z,0
2017-08-24T00:39:59.482Z,0
2017-08-24T00:41:11.459Z,0
2017-08-24T00:42:24.077Z,0
2017-08-24T00:43:36.698Z,0
2017-08-24T00:44:49.218Z,0
2017-08-24T00:46:01.172Z,0
2017-08-24T00:47:13.432Z,0
2017-08-24T00:48:25.088Z,0
2017-08-24T00:49:37.705Z,0
2017-08-24T00:50:50.005Z,0
2017-08-24T00:52:02.270Z,0
2017-08-24T00:53:14.875Z,0
2017-08-24T00:54:27.529Z,0
2017-08-24T00:55:39.500Z,0
2017-08-24T00:56:51.771Z,0
2017-08-24T00:58:04.091Z,0
2017-08-24T00:59:16.341Z,0
2017-08-24T01:00:28.939Z,0
2017-08-24T01:01:41.240Z,0
2017-08-24T01:02:53.808Z,0
2017-08-24T01:04:06.062Z,0
2017-08-24T01:05:18.293Z,0
2017-08-24T01:06:30.835Z,0
2017-08-24T01:07:43.164Z,0
2017-08-24T01:08:55.782Z,0
2017-08-24T01:10:08.081Z,0
2017-08-24T01:11:20.129Z,0
2017-08-24T01:12:32.713Z,0
2017-08-24T01:13:44.432Z,0
2017-08-24T01:14:57.018Z,0
2017-08-24T01:16:09.387Z,0
2017-08-24T01:17:21.701Z,0
2017-08-24T01:18:34.025Z,0
2017-08-24T01:19:46.620Z,0
2017-08-24T01:20:58.914Z,0
2017-08-24T01:22:11.530Z,0
2017-08-24T01:23:23.502Z,0
2017-08-24T01:24:36.121Z,0
2017-08-24T01:25:48.387Z,0
2017-08-24T01:27:00.981Z,0
2017-08-24T01:28:12.911Z,0
2017-08-24T01:29:25.530Z,0
2017-08-24T01:30:38.151Z,0
2017-08-24T01:31:50.701Z,0
2017-08-24T01:33:03.242Z,0
2017-08-24T01:34:15.893Z,0
2017-08-24T01:35:28.458Z,0
2017-08-24T01:36:40.436Z,0
2017-08-24T01:37:52.406Z,0
2017-08-24T01:39:04.696Z,0
2017-08-24T01:40:17.241Z,0
2017-08-24T01:41:29.786Z,0
2017-08-24T01:42:42.336Z,0
2017-08-24T01:43:54.578Z,0
2017-08-24T01:45:06.871Z,0
2017-08-24T01:46:19.511Z,0
2017-08-24T01:47:32.350Z,0
2017-08-24T01:48:44.693Z,0
2017-08-24T01:49:56.991Z,0
2017-08-24T01:51:09.551Z,0
2017-08-24T01:52:22.126Z,0
2017-08-24T01:53:34.678Z,0
2017-08-24T01:54:47.005Z,0
2017-08-24T01:55:59.338Z,0
2017-08-24T01:57:11.911Z,0
2017-08-24T01:58:24.508Z,0
2017-08-24T01:59:36.788Z,0
2017-08-24T02:00:49.341Z,0
2017-08-24T02:02:01.606Z,0
2017-08-24T02:03:13.894Z,0
2017-08-24T02:04:25.873Z,0
2017-08-24T02:05:38.477Z,0
2017-08-24T02:06:51.094Z,0
2017-08-24T02:08:03.380Z,0
2017-08-24T02:09:15.335Z,0
2017-08-24T02:10:27.917Z,0
2017-08-24T02:11:40.532Z,0
2017-08-24T02:12:52.756Z,0
2017-08-24T02:14:05.042Z,0
2017-08-24T02:15:17.631Z,0
2017-08-24T02:16:30.224Z,0
2017-08-24T02:17:42.881Z,0
2017-08-24T02:18:54.527Z,0
2017-08-24T02:20:06.797Z,0
2017-08-24T02:21:19.054Z,0
2017-08-24T02:22:31.627Z,0
2017-08-24T02:23:44.185Z,0
2017-08-24T02:24:56.728Z,0
2017-08-24T02:26:09.011Z,0
2017-08-24T02:27:21.646Z,0
2017-08-24T02:28:33.891Z,0
2017-08-24T02:29:46.446Z,0
2017-08-24T02:30:58.695Z,0
2017-08-24T02:32:11.020Z,0
2017-08-24T02:33:23.677Z,0
2017-08-24T02:34:36.280Z,0
2017-08-24T02:35:48.513Z,0
2017-08-24T02:37:00.762Z,0
2017-08-24T02:38:13.028Z,0
2017-08-24T02:39:25.016Z,0
2017-08-24T02:40:37.608Z,0
2017-08-24T02:41:49.867Z,0
2017-08-24T02:43:02.147Z,0
2017-08-24T02:44:14.685Z,0
2017-08-24T02:45:26.666Z,0
2017-08-24T02:46:39.276Z,0
2017-08-24T02:47:51.596Z,0
2017-08-24T02:49:03.880Z,0
2017-08-24T02:50:16.467Z,0
2017-08-24T02:51:29.066Z,0
2017-08-24T02:52:41.927Z,0
2017-08-24T02:53:54.509Z,0
2017-08-24T02:55:06.898Z,0
2017-08-24T02:56:19.240Z,0
2017-08-24T02:57:31.530Z,0
2017-08-24T02:58:43.786Z,0
2017-08-24T02:59:55.794Z,0
2017-08-24T03:01:08.128Z,0
2017-08-24T03:02:20.760Z,0
2017-08-24T03:03:33.349Z,0
2017-08-24T03:04:45.014Z,0
2017-08-24T03:05:57.274Z,0
2017-08-24T03:07:09.825Z,0
2017-08-24T03:08:22.140Z,0
2017-08-24T03:09:34.757Z,0
2017-08-24T03:10:46.971Z,0
2017-08-24T03:11:59.560Z,0
2017-08-24T03:13:12.186Z,0
2017-08-24T03:14:24.137Z,0
2017-08-24T03:15:36.757Z,0
2017-08-24T03:16:49.330Z,0
2017-08-24T03:18:01.062Z,0
2017-08-24T03:19:13.658Z,0
2017-08-24T03:20:26.284Z,0
2017-08-24T03:21:38.852Z,0
2017-08-24T03:22:51.421Z,0
2017-08-24T03:24:04.002Z,0
2017-08-24T03:25:16.911Z,0
2017-08-24T03:26:29.532Z,0
2017-08-24T03:27:41.751Z,0
2017-08-24T03:28:54.047Z,0
2017-08-24T03:30:06.363Z,4
2017-08-24T03:31:18.596Z,4
2017-08-24T03:32:31.192Z,4
2017-08-24T03:33:43.507Z,4
2017-08-24T03:34:55.735Z,4
2017-08-24T03:36:08.046Z,8
2017-08-24T03:37:20.341Z,4
2017-08-24T03:38:32.986Z,8
2017-08-24T03:39:45.612Z,8
2017-08-24T03:40:58.172Z,12
2017-08-24T03:42:10.168Z,12
2017-08-24T03:43:22.811Z,16
2017-08-24T03:44:34.847Z,20
2017-08-24T03:45:47.163Z,24
2017-08-24T03:46:59.383Z,28
2017-08-24T03:48:12.007Z,32
2017-08-24T03:49:24.010Z,40
2017-08-24T03:50:36.307Z,48
2017-08-24T03:51:48.907Z,56
2017-08-24T03:53:01.213Z,68
2017-08-24T03:54:13.768Z,76
2017-08-24T03:55:26.069Z,84
2017-08-24T03:56:38.422Z,92
2017-08-24T03:57:50.964Z,100
2017-08-24T03:59:03.545Z,116
2017-08-24T04:00:15.810Z,128
2017-08-24T04:01:28.087Z,140
2017-08-24T04:02:40.092Z,152
2017-08-24T04:03:52.069Z,168
2017-08-24T04:05:04.404Z,184
2017-08-24T04:06:16.750Z,204
2017-08-24T04:07:29.009Z,220
2017-08-24T04:08:41.587Z,248
2017-08-24T04:09:54.134Z,276
2017-08-24T04:11:06.670Z,308
2017-08-24T04:12:19.283Z,344
2017-08-24T04:13:31.930Z,388
2017-08-24T04:14:44.532Z,428
2017-08-24T04:15:57.079Z,468
2017-08-24T04:17:09.310Z,516
2017-08-24T04:18:21.604Z,564
2017-08-24T04:19:33.932Z,616
2017-08-24T04:20:46.196Z,664
2017-08-24T04:21:58.813Z,724
2017-08-24T04:23:11.101Z,780
2017-08-24T04:24:23.348Z,836
2017-08-24T04:25:35.843Z,904
2017-08-24T04:26:48.138Z,972
2017-08-24T04:28:00.091Z,1040
2017-08-24T04:29:12.641Z,1108
2017-08-24T04:30:25.234Z,1180
2017-08-24T04:31:37.851Z,1252
2017-08-24T04:32:50.419Z,1324
2017-08-24T04:34:02.411Z,1388
2017-08-24T04:35:14.994Z,1456
2017-08-24T04:36:27.563Z,1524
2017-08-24T04:37:39.866Z,1588
2017-08-24T04:38:51.849Z,1660
2017-08-24T04:40:04.116Z,1732
2017-08-24T04:41:16.698Z,1816
2017-08-24T04:42:29.290Z,1896
2017-08-24T04:43:41.589Z,1980
2017-08-24T04:44:53.854Z,2064
2017-08-24T04:46:06.160Z,2148
2017-08-24T04:47:18.714Z,2228
2017-08-24T04:48:31.297Z,2304
2017-08-24T04:49:43.892Z,2384
2017-08-24T04:50:56.501Z,2464
2017-08-24T04:52:08.448Z,2556
2017-08-24T04:53:20.669Z,2644
2017-08-24T04:54:33.001Z,2728
2017-08-24T04:55:45.633Z,2800
2017-08-24T04:56:57.664Z,2876
2017-08-24T04:58:10.281Z,2956
2017-08-24T04:59:22.847Z,3036
2017-08-24T05:00:35.423Z,3108
2017-08-24T05:01:47.363Z,3176
2017-08-24T05:02:59.866Z,3252
2017-08-24T05:04:12.554Z,3320
2017-08-24T05:05:24.497Z,3388
2017-08-24T05:06:36.775Z,3460
2017-08-24T05:07:49.338Z,3544
2017-08-24T05:09:01.667Z,3616
2017-08-24T05:10:14.225Z,3680
2017-08-24T05:11:26.816Z,3748
2017-08-24T05:12:39.099Z,3828
2017-08-24T05:13:51.679Z,3916
2017-08-24T05:15:04.340Z,4020
2017-08-24T05:16:16.890Z,4128
2017-08-24T05:17:28.555Z,4256
2017-08-24T05:18:41.176Z,4396
2017-08-24T05:19:53.133Z,4548
2017-08-24T05:21:05.761Z,4732
2017-08-24T05:22:18.319Z,5008
2017-08-24T05:23:30.859Z,5356
2017-08-24T05:24:43.685Z,5720
2017-08-24T05:25:56.331Z,6044
2017-08-24T05:27:08.271Z,6320
2017-08-24T05:28:20.521Z,6520
2017-08-24T05:29:33.129Z,6660
2017-08-24T05:30:45.732Z,6768
2017-08-24T05:31:58.355Z,6784
2017-08-24T05:33:10.630Z,6572
2017-08-24T05:34:23.261Z,6384
2017-08-24T05:35:35.865Z,6348
2017-08-24T05:36:48.384Z,6436
2017-08-24T05:38:00.692Z,6608
2017-08-24T05:39:12.983Z,6636
2017-08-24T05:40:25.511Z,6564
2017-08-24T05:41:38.144Z,6516
2017-08-24T05:42:50.150Z,6456
2017-08-24T05:44:02.759Z,6388
2017-08-24T05:45:15.033Z,6284
2017-08-24T05:46:27.533Z,6172
2017-08-24T05:47:40.139Z,6220
2017-08-24T05:48:52.703Z,6332
2017-08-24T05:50:05.015Z,6504
2017-08-24T05:51:17.607Z,6668
2017-08-24T05:52:30.216Z,6828
2017-08-24T05:53:42.805Z,7132
2017-08-24T05:54:55.114Z,7552
2017-08-24T05:56:07.365Z,7988
2017-08-24T05:57:19.645Z,8448
2017-08-24T05:58:32.248Z,8920
2017-08-24T05:59:44.853Z,9392
2017-08-24T06:00:57.424Z,9856
2017-08-24T06:02:09.375Z,10296
2017-08-24T06:03:21.966Z,10692
2017-08-24T06:04:34.212Z,11124
2017-08-24T06:05:46.842Z,11580
2017-08-24T06:06:59.484Z,12620
2017-08-24T06:08:11.771Z,13156
2017-08-24T06:09:24.380Z,13484
2017-08-24T06:10:36.355Z,13896
2017-08-24T06:11:48.596Z,14524
2017-08-24T06:13:00.587Z,14116
2017-08-24T06:14:13.157Z,13916
2017-08-24T06:15:25.771Z,13804
2017-08-24T06:16:38.021Z,13640
2017-08-24T06:17:50.588Z,13588
2017-08-24T06:19:03.187Z,13564
2017-08-24T06:20:15.834Z,13440
2017-08-24T06:21:28.462Z,13224
2017-08-24T06:22:41.046Z,12968
2017-08-24T06:23:53.646Z,12908
2017-08-24T06:25:05.980Z,13108
2017-08-24T06:26:17.981Z,13532
2017-08-24T06:27:30.566Z,13980
2017-08-24T06:28:42.897Z,14344
2017-08-24T06:29:54.911Z,14728
2017-08-24T06:31:07.489Z,15012
2017-08-24T06:32:19.746Z,15244
2017-08-24T06:33:32.049Z,15484
2017-08-24T06:34:44.627Z,15532
2017-08-24T06:35:56.649Z,15808
2017-08-24T06:37:08.611Z,16220
2017-08-24T06:38:20.899Z,16612
2017-08-24T06:39:33.493Z,16872
2017-08-24T06:40:46.347Z,17064
2017-08-24T06:41:58.979Z,17440
2017-08-24T06:43:11.582Z,17536
2017-08-24T06:44:24.217Z,17632
2017-08-24T06:45:36.792Z,17664
2017-08-24T06:46:49.133Z,17504
2017-08-24T06:48:01.707Z,17088
2017-08-24T06:49:14.024Z,16668
2017-08-24T06:50:26.556Z,16260
2017-08-24T06:51:38.865Z,15912
2017-08-24T06:52:50.890Z,15584
2017-08-24T06:54:03.188Z,15368
2017-08-24T06:55:15.502Z,15212
2017-08-24T06:56:28.039Z,14820
2017-08-24T06:57:39.720Z,14180
2017-08-24T06:58:52.056Z,13648
2017-08-24T07:00:04.035Z,13328
2017-08-24T07:01:16.295Z,13148
2017-08-24T07:02:28.802Z,12932
2017-08-24T07:03:41.322Z,12800
2017-08-24T07:04:53.904Z,12852
2017-08-24T07:06:06.164Z,12992
2017-08-24T07:07:18.365Z,13496
2017-08-24T07:08:30.615Z,13892
2017-08-24T07:09:43.157Z,14128
2017-08-24T07:10:55.775Z,14316
2017-08-24T07:12:07.172Z,15032
2017-08-24T07:13:19.874Z,18848
2017-08-24T07:14:32.460Z,18752
2017-08-24T07:15:45.003Z,19072
2017-08-24T07:16:57.285Z,18272
2017-08-24T07:18:09.851Z,18880
2017-08-24T07:19:22.263Z,15400
2017-08-24T07:20:34.882Z,14048
2017-08-24T07:21:47.132Z,13872
2017-08-24T07:22:59.708Z,15368
2017-08-24T07:24:12.352Z,15548
2017-08-24T07:25:24.361Z,17632
2017-08-24T07:26:36.664Z,17472
2017-08-24T07:27:49.213Z,17180
2017-08-24T07:29:01.801Z,16940
2017-08-24T07:30:14.119Z,16884
2017-08-24T07:31:26.683Z,16500
2017-08-24T07:32:38.643Z,16468
2017-08-24T07:33:51.244Z,16664
2017-08-24T07:35:03.819Z,16532
2017-08-24T07:36:16.155Z,16744
2017-08-24T07:37:28.417Z,16848
2017-08-24T07:38:40.952Z,16884
2017-08-24T07:39:53.266Z,17380
2017-08-24T07:41:05.852Z,17592
2017-08-24T07:42:18.459Z,19040
2017-08-24T07:43:30.758Z,22304
2017-08-24T07:44:43.080Z,28352
2017-08-24T07:45:55.047Z,38720
2017-08-24T07:47:07.671Z,46144
2017-08-24T07:48:19.901Z,50176
2017-08-24T07:49:32.285Z,49472
2017-08-24T07:50:44.927Z,50816
2017-08-24T07:51:57.204Z,49632
2017-08-24T07:53:09.761Z,51232
2017-08-24T07:54:22.406Z,52032
2017-08-24T07:55:35.037Z,53056
2017-08-24T07:56:47.586Z,53408
2017-08-24T07:58:00.205Z,52448
2017-08-24T07:59:12.807Z,50592
2017-08-24T08:00:25.442Z,48032
2017-08-24T08:01:37.713Z,45408
2017-08-24T08:02:50.028Z,44032
2017-08-24T08:04:02.615Z,41792
2017-08-24T08:05:14.949Z,26368
2017-08-24T08:06:27.257Z,18816
2017-08-24T08:07:39.924Z,18688
2017-08-24T08:08:52.278Z,18816
2017-08-24T08:10:04.861Z,18976
2017-08-24T08:11:17.481Z,19264
2017-08-24T08:12:29.772Z,19584
2017-08-24T08:13:42.127Z,20000
2017-08-24T08:14:54.757Z,20480
2017-08-24T08:16:07.012Z,20960
2017-08-24T08:17:19.306Z,21472
2017-08-24T08:18:32.182Z,21984
2017-08-24T08:19:44.153Z,22432
2017-08-24T08:20:56.461Z,22656
2017-08-24T08:22:08.457Z,22720
2017-08-24T08:23:21.060Z,22496
2017-08-24T08:24:33.655Z,22528
2017-08-24T08:25:45.607Z,22528
2017-08-24T08:26:57.888Z,22784
2017-08-24T08:28:09.895Z,23136
2017-08-24T08:29:22.214Z,23456
2017-08-24T08:30:34.459Z,23616
2017-08-24T08:31:47.085Z,23712
2017-08-24T08:32:59.428Z,23712
2017-08-24T08:34:11.401Z,23584
2017-08-24T08:35:23.457Z,23456
2017-08-24T08:36:36.051Z,23360
2017-08-24T08:37:48.658Z,23168
2017-08-24T08:39:00.920Z,22880
2017-08-24T08:40:12.879Z,22560
2017-08-24T08:41:25.571Z,22176
2017-08-24T08:42:38.225Z,21824
2017-08-24T08:43:50.902Z,21536
2017-08-24T08:45:03.183Z,21216
2017-08-24T08:46:15.130Z,21024
2017-08-24T08:47:27.433Z,20832
2017-08-24T08:48:39.368Z,20768
2017-08-24T08:49:51.340Z,20800
2017-08-24T08:51:03.933Z,20864
2017-08-24T08:52:15.905Z,21120
2017-08-24T08:53:28.556Z,21568
2017-08-24T08:54:41.181Z,22176
2017-08-24T08:55:53.823Z,22976
2017-08-24T08:57:06.140Z,23840
2017-08-24T08:58:18.094Z,24512
2017-08-24T08:59:30.366Z,25088
2017-08-24T09:00:42.991Z,25568
2017-08-24T09:01:54.644Z,26048
2017-08-24T09:03:06.901Z,26464
2017-08-24T09:04:19.189Z,26848
2017-08-24T09:05:30.959Z,27168
2017-08-24T09:06:43.253Z,27392
2017-08-24T09:07:55.798Z,27456
2017-08-24T09:09:07.774Z,27424
2017-08-24T09:10:19.773Z,27328
2017-08-24T09:11:31.820Z,27232
2017-08-24T09:12:44.413Z,26944
2017-08-24T09:13:56.968Z,26528
2017-08-24T09:15:08.896Z,26112
2017-08-24T09:16:21.501Z,25664
2017-08-24T09:17:34.167Z,25312
2017-08-24T09:18:46.390Z,24960
2017-08-24T09:19:58.686Z,24448
2017-08-24T09:21:11.027Z,23936
2017-08-24T09:22:23.314Z,23392
2017-08-24T09:23:35.953Z,22368
2017-08-24T09:24:47.893Z,21632
2017-08-24T09:26:00.208Z,21504
2017-08-24T09:27:12.521Z,21184
2017-08-24T09:28:24.860Z,20256
2017-08-24T09:29:37.162Z,19488
2017-08-24T09:30:49.747Z,19488
2017-08-24T09:32:01.700Z,19456
2017-08-24T09:33:13.988Z,19136
2017-08-24T09:34:26.591Z,18432
2017-08-24T09:35:39.158Z,17184
2017-08-24T09:36:51.136Z,17376
2017-08-24T09:38:03.719Z,18752
2017-08-24T09:39:15.977Z,20192
2017-08-24T09:40:28.312Z,21088
2017-08-24T09:41:40.576Z,20928
2017-08-24T09:42:52.571Z,19520
2017-08-24T09:44:04.595Z,16024
2017-08-24T09:45:16.844Z,11000
2017-08-24T09:46:29.439Z,7032
2017-08-24T09:47:41.683Z,5260
2017-08-24T09:48:53.967Z,4944
2017-08-24T09:50:06.207Z,4948
2017-08-24T09:51:18.840Z,4752
2017-08-24T09:52:31.411Z,4432
2017-08-24T09:53:43.356Z,4236
2017-08-24T09:54:55.352Z,4108
2017-08-24T09:56:07.324Z,4056
2017-08-24T09:57:19.219Z,4152
2017-08-24T09:58:31.440Z,4472
2017-08-24T09:59:43.661Z,5172
2017-08-24T10:00:55.959Z,6232
2017-08-24T10:02:08.279Z,7924
2017-08-24T10:03:20.583Z,9964
2017-08-24T10:04:33.185Z,11652
2017-08-24T10:05:45.396Z,12628
2017-08-24T10:06:57.696Z,13104
2017-08-24T10:08:10.307Z,13240
2017-08-24T10:09:22.900Z,12888
2017-08-24T10:10:35.188Z,12044
2017-08-24T10:11:47.526Z,11392
2017-08-24T10:13:00.180Z,11200
2017-08-24T10:14:12.782Z,11444
2017-08-24T10:15:25.110Z,11540
2017-08-24T10:16:37.332Z,10980
2017-08-24T10:17:49.671Z,10232
2017-08-24T10:19:02.345Z,9708
2017-08-24T10:20:14.874Z,9540
2017-08-24T10:21:27.507Z,9676
2017-08-24T10:22:39.794Z,10132
2017-08-24T10:23:52.152Z,10872
2017-08-24T10:25:04.169Z,11928
2017-08-24T10:26:16.765Z,13152
2017-08-24T10:27:29.110Z,14308
2017-08-24T10:28:41.959Z,15268
2017-08-24T10:29:54.647Z,15908
2017-08-24T10:31:08.031Z,16568
2017-08-24T10:32:20.531Z,17312
2017-08-24T10:33:32.796Z,17856
2017-08-24T10:34:45.077Z,18368
2017-08-24T10:35:57.037Z,18720
2017-08-24T10:37:09.675Z,19008
2017-08-24T10:38:22.257Z,19104
2017-08-24T10:39:35.124Z,19456
2017-08-24T10:40:47.455Z,20192
2017-08-24T10:42:14.007Z,21280
2017-08-24T10:43:26.820Z,22240
2017-08-24T10:46:21.146Z,24320
2017-08-24T10:47:33.112Z,25536
2017-08-24T10:48:45.108Z,26688
2017-08-24T10:49:57.035Z,27840
2017-08-24T10:51:09.037Z,28512
2017-08-24T10:52:21.695Z,30624
2017-08-24T10:53:34.315Z,35712
2017-08-24T10:54:46.903Z,41312
2017-08-24T10:55:59.175Z,44448
2017-08-24T10:57:11.422Z,48672
2017-08-24T10:58:24.010Z,48032
2017-08-24T10:59:36.645Z,47392
2017-08-24T11:00:48.321Z,44864
2017-08-24T11:02:00.597Z,37920
2017-08-24T11:03:12.930Z,34336
2017-08-24T11:04:25.219Z,32000
2017-08-24T11:05:37.476Z,30752
2017-08-24T11:06:49.761Z,29536
2017-08-24T11:08:02.056Z,32608
2017-08-24T11:09:14.334Z,29920
2017-08-24T11:10:26.580Z,30464
2017-08-24T11:11:38.855Z,26592
2017-08-24T11:12:51.447Z,29408
2017-08-24T11:14:03.398Z,34016
2017-08-24T11:15:15.380Z,34368
2017-08-24T11:16:27.453Z,35872
2017-08-24T11:17:39.413Z,36288
2017-08-24T11:18:52.024Z,35104
2017-08-24T11:20:04.258Z,34848
2017-08-24T11:21:16.256Z,33632
2017-08-24T11:22:28.899Z,32768
2017-08-24T11:23:40.893Z,32768
2017-08-24T11:24:53.428Z,34912
2017-08-24T11:26:06.075Z,35872
2017-08-24T11:27:18.705Z,38272
2017-08-24T11:28:31.013Z,36032
2017-08-24T11:29:43.318Z,34048
2017-08-24T11:30:55.293Z,32832
2017-08-24T11:32:07.644Z,33152
2017-08-24T11:33:19.963Z,32672
2017-08-24T11:34:31.975Z,32992
2017-08-24T11:35:43.678Z,29696
2017-08-24T11:36:55.963Z,24480
2017-08-24T11:38:07.659Z,25440
2017-08-24T11:39:19.875Z,36000
2017-08-24T11:40:32.131Z,36160
2017-08-24T11:41:44.692Z,31776
2017-08-24T11:42:57.345Z,29120
2017-08-24T11:44:09.771Z,27744
2017-08-24T11:45:22.430Z,26144
2017-08-24T11:46:34.805Z,27168
2017-08-24T11:47:47.121Z,36000
2017-08-24T11:48:59.740Z,35200
2017-08-24T11:50:11.694Z,30560
2017-08-24T11:51:24.280Z,27840
2017-08-24T11:52:36.885Z,30208
2017-08-24T11:53:49.524Z,29152
2017-08-24T11:55:02.124Z,29728
2017-08-24T11:56:14.091Z,29888
2017-08-24T11:57:26.311Z,30752
2017-08-24T11:58:38.486Z,33408
2017-08-24T11:59:50.703Z,35776
2017-08-24T12:01:02.945Z,35808
2017-08-24T12:02:15.282Z,35648
2017-08-24T12:03:27.925Z,33952
2017-08-24T12:04:40.212Z,33696
2017-08-24T12:05:52.762Z,38400
2017-08-24T12:07:04.704Z,43296
2017-08-24T12:08:16.991Z,42496
2017-08-24T12:09:44.183Z,37088
2017-08-24T12:10:56.411Z,32352
2017-08-24T12:12:08.333Z,30976
2017-08-24T12:13:20.934Z,32640
2017-08-24T12:14:32.873Z,32928
2017-08-24T12:15:45.394Z,35040
2017-08-24T12:16:57.996Z,39136
2017-08-24T12:18:10.278Z,42656
2017-08-24T12:19:22.882Z,43264
2017-08-24T12:22:02.333Z,38464
2017-08-24T12:23:14.893Z,44832
2017-08-24T12:24:27.188Z,45664
2017-08-24T12:25:39.808Z,39808
2017-08-24T12:26:52.491Z,40576
2017-08-24T12:28:04.893Z,32704
2017-08-24T12:29:17.493Z,24832
2017-08-24T12:30:29.473Z,26976
2017-08-24T12:31:41.795Z,33408
2017-08-24T12:32:54.449Z,34112
2017-08-24T12:34:06.434Z,29344
2017-08-24T12:35:19.049Z,29088
2017-08-24T12:36:31.370Z,42496
2017-08-24T12:37:44.202Z,46528
2017-08-24T12:38:56.161Z,44928
2017-08-24T12:40:08.717Z,43872
2017-08-24T12:41:21.026Z,45056
2017-08-24T12:42:33.304Z,37696
2017-08-24T12:43:45.875Z,41280
2017-08-24T12:44:58.175Z,26880
2017-08-24T12:46:10.816Z,32032
2017-08-24T12:47:23.106Z,33952
2017-08-24T12:48:35.044Z,28032
2017-08-24T12:49:47.389Z,24128
2017-08-24T12:50:59.978Z,24672
2017-08-24T12:52:12.294Z,27232
2017-08-24T12:53:24.887Z,27296
2017-08-24T12:54:37.210Z,26464
2017-08-24T12:55:49.474Z,25472
2017-08-24T12:57:02.001Z,25024
2017-08-24T12:58:14.619Z,25120
2017-08-24T12:59:26.837Z,24512
2017-08-24T13:00:39.106Z,24832
2017-08-24T13:01:51.420Z,28096
2017-08-24T13:03:03.449Z,30496
2017-08-24T13:04:15.398Z,28256
2017-08-24T13:05:27.678Z,24992
2017-08-24T13:06:40.279Z,22816
2017-08-24T13:07:52.856Z,23200
2017-08-24T13:09:05.352Z,24096
2017-08-24T13:10:17.905Z,24928
2017-08-24T13:11:30.554Z,23488
2017-08-24T13:12:42.846Z,24064
2017-08-24T13:13:55.109Z,25472
2017-08-24T13:15:07.339Z,26944
2017-08-24T13:16:19.950Z,27360
2017-08-24T13:17:32.496Z,25440
2017-08-24T13:18:45.029Z,23264
2017-08-24T13:19:57.337Z,24288
2017-08-24T13:21:09.282Z,27296
2017-08-24T13:22:21.907Z,27520
2017-08-24T13:23:34.198Z,24032
2017-08-24T13:24:46.138Z,21952
2017-08-24T13:25:58.765Z,21088
2017-08-24T13:27:11.421Z,21760
2017-08-24T13:28:23.682Z,23136
2017-08-24T13:29:35.634Z,23840
2017-08-24T13:30:48.184Z,21696
2017-08-24T13:32:00.595Z,17664
2017-08-24T13:33:12.906Z,14268
2017-08-24T13:34:25.153Z,12896
2017-08-24T13:35:37.455Z,11776
2017-08-24T13:36:49.982Z,10996
2017-08-24T13:38:01.972Z,10620
2017-08-24T13:39:13.901Z,11228
2017-08-24T13:40:26.554Z,11944
2017-08-24T13:41:38.883Z,11472
2017-08-24T13:42:51.466Z,10936
2017-08-24T13:44:03.806Z,11108
2017-08-24T13:45:16.057Z,10800
2017-08-24T13:46:28.571Z,10488
2017-08-24T13:47:40.868Z,10864
2017-08-24T13:48:52.787Z,11256
2017-08-24T13:50:05.110Z,10924
2017-08-24T13:51:17.686Z,10328
2017-08-24T13:52:30.344Z,10100
2017-08-24T13:53:42.627Z,10244
2017-08-24T13:54:55.268Z,9688
2017-08-24T13:56:07.632Z,10188
2017-08-24T13:57:19.559Z,11976
2017-08-24T13:58:31.847Z,14544
2017-08-24T13:59:44.122Z,16492
2017-08-24T14:00:56.802Z,18976
2017-08-24T14:02:09.152Z,22272
2017-08-24T14:03:21.766Z,23072
2017-08-24T14:04:34.083Z,22176
2017-08-24T14:05:46.679Z,25376
2017-08-24T14:06:58.371Z,21056
2017-08-24T14:08:10.718Z,17888
2017-08-24T14:09:23.324Z,16204
2017-08-24T14:10:35.997Z,13460
2017-08-24T14:11:48.567Z,11204
2017-08-24T14:13:01.147Z,12284
2017-08-24T14:14:13.103Z,13032
2017-08-24T14:15:25.729Z,12480
2017-08-24T14:16:38.019Z,11572
2017-08-24T14:17:50.316Z,10612
2017-08-24T14:19:02.299Z,10160
2017-08-24T14:20:14.545Z,12244
2017-08-24T14:21:26.839Z,13216
2017-08-24T14:22:39.061Z,15008
2017-08-24T14:23:51.557Z,18720
2017-08-24T14:25:03.607Z,23200
2017-08-24T14:26:16.184Z,21440
2017-08-24T14:27:28.797Z,16732
2017-08-24T14:28:40.765Z,14472
2017-08-24T14:29:53.336Z,14328
2017-08-24T14:31:05.637Z,13780
2017-08-24T14:32:18.252Z,15496
2017-08-24T14:33:30.821Z,18624
2017-08-24T14:34:43.448Z,20352
2017-08-24T14:35:55.744Z,21728
2017-08-24T14:37:08.407Z,22848
2017-08-24T14:38:20.992Z,21632
2017-08-24T14:39:33.342Z,18496
2017-08-24T14:40:45.637Z,16820
2017-08-24T14:41:57.940Z,15524
2017-08-24T14:43:09.863Z,15104
2017-08-24T14:44:21.819Z,14848
2017-08-24T14:45:34.496Z,14652
2017-08-24T14:46:47.123Z,14172
2017-08-24T14:47:59.387Z,11896
2017-08-24T14:49:11.342Z,9612
2017-08-24T14:50:23.943Z,8292
2017-08-24T14:51:36.560Z,7896
2017-08-24T14:52:49.319Z,8440
2017-08-24T14:54:00.999Z,9220
2017-08-24T14:55:13.594Z,10836
2017-08-24T14:56:25.807Z,12516
2017-08-24T14:57:38.060Z,14068
2017-08-24T14:58:50.632Z,16036
2017-08-24T15:00:02.876Z,16820
2017-08-24T15:01:14.872Z,15680
2017-08-24T15:02:26.891Z,13128
2017-08-24T15:03:39.187Z,11344
2017-08-24T15:04:51.411Z,10564
2017-08-24T15:06:03.732Z,10664
2017-08-24T15:07:16.005Z,11144
2017-08-24T15:08:28.628Z,11420
2017-08-24T15:09:40.894Z,11748
2017-08-24T15:10:53.541Z,12644
2017-08-24T15:12:06.134Z,13556
2017-08-24T15:13:18.689Z,13964
2017-08-24T15:14:30.986Z,13988
2017-08-24T15:15:43.295Z,14108
2017-08-24T15:16:55.898Z,14332
2017-08-24T15:18:07.898Z,14588
2017-08-24T15:19:20.234Z,14708
2017-08-24T15:20:32.819Z,14496
2017-08-24T15:21:45.115Z,13484
2017-08-24T15:22:57.693Z,12840
2017-08-24T15:24:10.042Z,12392
2017-08-24T15:25:22.326Z,13640
2017-08-24T15:26:34.955Z,14128
2017-08-24T15:27:46.915Z,13532
2017-08-24T15:28:59.163Z,12660
2017-08-24T15:30:11.484Z,11680
2017-08-24T15:31:24.064Z,11000
2017-08-24T15:32:36.294Z,10812
2017-08-24T15:33:48.590Z,10216
2017-08-24T15:35:00.886Z,9944
2017-08-24T15:36:13.505Z,9336
2017-08-24T15:37:26.127Z,9844
2017-08-24T15:38:38.093Z,9724
2017-08-24T15:39:50.768Z,9140
2017-08-24T15:41:03.078Z,9060
2017-08-24T15:42:15.673Z,8740
2017-08-24T15:43:28.251Z,8312
2017-08-24T15:44:40.191Z,8192
2017-08-24T15:45:52.762Z,8056
2017-08-24T15:47:04.717Z,7872
2017-08-24T15:48:16.709Z,7656
2017-08-24T15:49:29.290Z,7616
2017-08-24T15:50:41.900Z,7500
2017-08-24T15:51:54.561Z,7220
2017-08-24T15:53:07.112Z,7068
2017-08-24T15:54:19.435Z,6936
2017-08-24T15:55:31.396Z,6864
2017-08-24T15:56:44.019Z,6936
2017-08-24T15:57:56.003Z,6776
2017-08-24T15:59:08.291Z,6664
2017-08-24T16:00:20.277Z,6560
2017-08-24T16:01:32.864Z,6504
2017-08-24T16:02:45.210Z,6448
2017-08-24T16:03:57.220Z,6372
2017-08-24T16:05:09.564Z,6352
2017-08-24T16:06:21.839Z,6328
2017-08-24T16:07:34.113Z,6288
2017-08-24T16:08:46.759Z,6272
2017-08-24T16:09:59.391Z,6192
2017-08-24T16:11:11.947Z,6164
2017-08-24T16:12:24.321Z,6096